Time;durP1;ratioP1;P1;durP2;ratioP2;P2;SDS_P1;SDS_P2;PMS_P1;PMS_P2;Temp;Humidity;BMP_temperature;BMP_pressure;BME280_temperature;BME280_humidity;BME280_pressure;Samples;Min_cycle;Max_cycle;Signal;HPM_P1;HPM_P2
2022/05/06 00:02:21;;;;;;;32.92;12.13;;;;;;;9.91;nan;102413.13;5030645;28;20079;-49
2022/05/06 00:04:47;;;;;;;35.42;11.75;;;;;;;10.11;nan;102466.53;5013347;28;20249;-49
2022/05/06 00:07:12;;;;;;;32.63;12.63;;;;;;;10.08;nan;102474.44;5032028;28;20040;-49
2022/05/06 00:09:39;;;;;;;34.38;12.98;;;;;;;9.79;nan;102425.44;5017613;28;20037;-47
2022/05/06 00:12:05;;;;;;;22.13;11.45;;;;;;;10.02;nan;102463.94;5035231;28;20040;-47
2022/05/06 00:14:31;;;;;;;50.67;14.30;;;;;;;10.01;nan;102458.69;5017287;28;20124;-50
2022/05/06 00:16:56;;;;;;;29.42;12.25;;;;;;;9.97;nan;102464.84;5035030;28;20192;-49
2022/05/06 00:19:22;;;;;;;40.28;11.80;;;;;;;9.94;nan;102467.47;5017026;28;20026;-50
2022/05/06 00:21:47;;;;;;;41.50;11.77;;;;;;;9.92;nan;102462.22;5035023;28;20053;-49
2022/05/06 00:24:12;;;;;;;20.73;12.27;;;;;;;9.93;nan;102461.34;5035105;28;20069;-48
2022/05/06 00:26:38;;;;;;;26.92;12.57;;;;;;;9.93;nan;102458.69;5034940;28;20033;-52
2022/05/06 00:29:03;;;;;;;56.90;13.00;;;;;;;9.66;nan;102411.47;5034883;28;20116;-54
2022/05/06 00:31:29;;;;;;;38.90;12.32;;;;;;;9.95;nan;102456.09;5034704;28;20029;-54
2022/05/06 00:33:54;;;;;;;22.73;12.00;;;;;;;9.96;nan;102468.31;5034663;28;20044;-54
2022/05/06 00:36:19;;;;;;;44.30;13.50;;;;;;;9.68;nan;102408.84;5034716;28;20053;-52
2022/05/06 00:38:45;;;;;;;52.58;12.82;;;;;;;9.62;nan;102404.47;5034858;28;20041;-52
2022/05/06 00:41:10;;;;;;;20.17;12.32;;;;;;;9.83;nan;102429.81;5034641;28;20404;-48
2022/05/06 00:43:40;;;;;;;25.27;14.10;;;;;;;9.90;nan;102442.06;5016840;28;20040;-50
2022/05/06 00:46:10;;;;;;;26.45;14.10;;;;;;;9.63;nan;102393.94;5016784;28;20041;-57
2022/05/06 00:48:35;;;;;;;39.78;17.05;;;;;;;9.71;nan;102401.81;5034564;28;20108;-49
2022/05/06 00:51:04;;;;;;;27.05;14.45;;;;;;;9.68;nan;102393.06;5033319;28;20134;-50
2022/05/06 00:53:29;;;;;;;28.08;15.57;;;;;;;9.89;nan;102421.91;5034329;28;20048;-50
2022/05/06 00:55:56;;;;;;;36.78;14.27;;;;;;;10.08;nan;102450.75;5034248;28;20029;-49
2022/05/06 00:58:23;;;;;;;27.77;16.13;;;;;;;9.89;nan;102414.03;5016725;28;20029;-50
2022/05/06 01:00:49;;;;;;;36.72;15.90;;;;;;;10.13;nan;102456.00;5034232;28;20045;-55
2022/05/06 01:03:14;;;;;;;32.80;15.43;;;;;;;9.85;nan;102405.25;5016481;28;20052;-52
2022/05/06 01:05:39;;;;;;;29.45;15.25;;;;;;;10.11;nan;102453.38;5033970;28;20055;-50
2022/05/06 01:08:05;;;;;;;26.77;14.35;;;;;;;9.83;nan;102407.03;5034256;28;20037;-48
2022/05/06 01:10:31;;;;;;;24.70;14.50;;;;;;;10.08;nan;102460.38;5034208;28;20408;-48
2022/05/06 01:12:56;;;;;;;25.35;13.82;;;;;;;9.76;nan;102405.28;5034086;28;20032;-53
2022/05/06 01:15:23;;;;;;;32.05;14.10;;;;;;;10.01;nan;102470.06;5016577;28;20033;-47
2022/05/06 01:17:50;;;;;;;44.60;15.77;;;;;;;9.93;nan;102453.44;5033463;28;20037;-54
2022/05/06 01:20:16;;;;;;;28.52;14.63;;;;;;;9.58;nan;102395.72;5016065;28;20098;-47
2022/05/06 01:22:53;;;;;;;32.95;15.65;;;;;;;9.57;nan;102393.97;5033692;28;20424;-51
2022/05/06 01:25:20;;;;;;;27.70;16.23;;;;;;;9.93;nan;102457.81;5015727;28;20035;-47
2022/05/06 01:27:48;;;;;;;32.35;16.63;;;;;;;9.77;nan;102437.72;5033715;28;20034;-52
2022/05/06 01:30:23;;;;;;;25.65;14.57;;;;;;;9.66;nan;102418.50;5033782;28;20036;-47
2022/05/06 01:32:50;;;;;;;29.27;13.38;;;;;;;9.61;nan;102422.00;5033854;28;20380;-55
2022/05/06 01:35:16;;;;;;;29.65;12.95;;;;;;;9.81;nan;102460.50;5033214;28;20037;-48
2022/05/06 01:37:42;;;;;;;26.40;13.88;;;;;;;9.61;nan;102440.41;5015686;28;20059;-50
2022/05/06 01:40:08;;;;;;;26.35;13.55;;;;;;;9.47;nan;102410.66;5015585;28;20479;-48
2022/05/06 01:42:34;;;;;;;23.27;13.98;;;;;;;9.75;nan;102468.44;5015739;28;20133;-55
2022/05/06 01:45:01;;;;;;;30.88;14.20;;;;;;;9.44;nan;102415.06;5033251;28;20140;-51
2022/05/06 01:47:27;;;;;;;28.92;13.70;;;;;;;9.70;nan;102457.03;5015939;28;20067;-50
2022/05/06 01:49:53;;;;;;;25.08;15.20;;;;;;;9.51;nan;102422.06;5033364;28;20047;-49
2022/05/06 01:52:19;;;;;;;29.77;15.55;;;;;;;9.73;nan;102463.16;5015627;28;20076;-47
2022/05/06 01:54:45;;;;;;;30.45;15.23;;;;;;;9.70;nan;102444.75;5015539;28;20053;-50
2022/05/06 01:57:10;;;;;;;42.17;17.05;;;;;;;9.77;nan;102470.16;4998976;28;20091;-52
2022/05/06 01:59:35;;;;;;;33.80;17.63;;;;;;;9.78;nan;102457.91;5033286;28;20095;-49
2022/05/06 02:02:01;;;;;;;34.38;16.60;;;;;;;9.53;nan;102422.91;5033139;28;20068;-51
2022/05/06 02:07:11;;;;;;;46.05;18.83;;;;;;;9.79;nan;102457.88;5033122;28;20103;-47
2022/05/06 02:09:36;;;;;;;34.83;18.58;;;;;;;9.55;nan;102408.88;5032726;28;20075;-52
2022/05/06 02:12:02;;;;;;;40.55;19.98;;;;;;;9.84;nan;102464.00;5032993;28;20045;-51
2022/05/06 02:14:28;;;;;;;42.47;19.65;;;;;;;9.85;nan;102471.00;5032873;28;20041;-52
2022/05/06 02:16:53;;;;;;;38.53;18.65;;;;;;;9.86;nan;102464.00;5015250;28;20033;-47
2022/05/06 02:19:18;;;;;;;42.03;21.27;;;;;;;9.87;nan;102473.63;5032763;28;20106;-50
2022/05/06 02:21:43;;;;;;;55.03;21.27;;;;;;;9.88;nan;102456.97;5032768;28;20033;-50
2022/05/06 02:24:09;;;;;;;47.17;21.60;;;;;;;9.91;nan;102456.97;5032474;28;20034;-48
2022/05/06 02:26:34;;;;;;;68.95;21.70;;;;;;;9.89;nan;102456.09;5031699;28;20068;-53
2022/05/06 02:28:59;;;;;;;61.10;22.25;;;;;;;9.92;nan;102471.88;5032319;28;20491;-52
2022/05/06 02:34:15;;;;;;;60.13;24.15;;;;;;;9.94;nan;102464.84;5032400;28;20115;-51
2022/05/06 02:36:41;;;;;;;65.32;25.50;;;;;;;9.99;nan;102468.31;5031126;28;20033;-52
2022/05/06 02:39:06;;;;;;;73.40;26.73;;;;;;;9.99;nan;102455.16;5014775;28;20037;-48
2022/05/06 02:41:31;;;;;;;62.83;26.10;;;;;;;10.03;nan;102449.03;5031232;28;20032;-49
2022/05/06 02:43:56;;;;;;;62.40;26.20;;;;;;;9.90;nan;102437.66;5014579;28;20499;-48
2022/05/06 02:46:22;;;;;;;67.75;26.77;;;;;;;10.08;nan;102458.63;5032199;28;20052;-51
2022/05/06 02:48:47;;;;;;;67.88;28.50;;;;;;;9.84;nan;102421.91;5032395;28;20029;-49
2022/05/06 02:51:13;;;;;;;73.68;27.98;;;;;;;10.13;nan;102461.25;5032133;28;20045;-47
2022/05/06 02:53:38;;;;;;;55.97;25.10;;;;;;;10.18;nan;102471.78;5032377;28;20053;-53
2022/05/06 02:56:04;;;;;;;61.65;26.77;;;;;;;10.17;nan;102470.91;5032452;28;20405;-48
2022/05/06 02:58:29;;;;;;;64.38;27.38;;;;;;;10.15;nan;102470.94;5032027;28;20053;-52
2022/05/06 03:00:54;;;;;;;54.20;23.90;;;;;;;9.99;nan;102434.13;5032591;28;20420;-48
2022/05/06 03:03:20;;;;;;;103.18;24.05;;;;;;;10.03;nan;102475.34;5031989;28;20617;-50
2022/05/06 03:05:45;;;;;;;54.38;22.33;;;;;;;9.71;nan;102420.22;5032036;28;20040;-48
2022/05/06 03:08:10;;;;;;;53.35;24.23;;;;;;;9.69;nan;102414.06;5031842;28;20037;-48
2022/05/06 03:10:36;;;;;;;50.35;23.75;;;;;;;9.89;nan;102448.22;5031118;28;20441;-49
2022/05/06 03:13:01;;;;;;;49.63;23.67;;;;;;;9.70;nan;102407.94;5032141;28;20037;-54
2022/05/06 03:15:27;;;;;;;49.63;23.58;;;;;;;9.99;nan;102455.16;5032126;28;20480;-48
2022/05/06 03:17:52;;;;;;;47.67;21.95;;;;;;;9.92;nan;102443.81;5032044;28;20140;-60
2022/05/06 03:20:18;;;;;;;37.95;20.90;;;;;;;9.90;nan;102460.47;5031911;28;20045;-48
2022/05/06 03:22:46;;;;;;;39.70;20.33;;;;;;;9.85;nan;102449.09;5031784;28;20060;-49
2022/05/06 03:25:12;;;;;;;35.50;20.55;;;;;;;9.84;nan;102463.13;5014640;28;20045;-46
2022/05/06 03:30:22;;;;;;;34.47;21.67;;;;;;;9.59;nan;102415.88;5032093;28;20044;-49
2022/05/06 03:32:47;;;;;;;37.53;20.42;;;;;;;9.85;nan;102463.13;5031771;28;20038;-54
2022/05/06 03:35:13;;;;;;;46.47;21.35;;;;;;;9.79;nan;102457.00;5013902;28;20033;-49
2022/05/06 03:37:38;;;;;;;39.15;21.85;;;;;;;9.84;nan;102464.00;5031990;28;20030;-51
2022/05/06 03:40:05;;;;;;;46.28;18.73;;;;;;;9.84;nan;102461.38;5014231;28;20049;-57
2022/05/06 03:42:30;;;;;;;45.53;18.92;;;;;;;9.54;nan;102414.16;5016537;28;20036;-52
2022/05/06 03:44:56;;;;;;;36.15;20.10;;;;;;;9.52;nan;102416.78;5035451;28;20038;-49
2022/05/06 03:47:21;;;;;;;43.70;20.58;;;;;;;9.74;nan;102456.16;5035421;28;20389;-52
2022/05/06 03:51:20;;;;;;;42.08;20.25;;;;;;;9.72;nan;102447.41;5018278;28;20053;-52
2022/05/06 03:52:34;;;;;;;35.45;20.10;;;;;;;9.75;nan;102452.66;5035468;28;20493;-56
2022/05/06 03:54:59;;;;;;;47.13;20.92;;;;;;;9.49;nan;102398.38;5035778;28;20075;-50
2022/05/06 03:57:24;;;;;;;35.40;19.77;;;;;;;9.76;nan;102444.75;5035448;28;20037;-53
2022/05/06 03:59:49;;;;;;;45.35;20.35;;;;;;;9.74;nan;102448.25;5035124;28;20539;-48
2022/05/06 04:02:15;;;;;;;47.55;23.13;;;;;;;9.67;nan;102443.88;5034910;28;20041;-45
2022/05/06 04:04:42;;;;;;;39.67;20.98;;;;;;;9.75;nan;102456.13;5035574;28;20079;-49
2022/05/06 04:07:07;;;;;;;62.85;21.25;;;;;;;9.63;nan;102441.28;5034938;28;20063;-51
2022/05/06 04:09:32;;;;;;;53.40;23.08;;;;;;;9.42;nan;102411.56;5035290;28;20472;-54
2022/05/06 04:11:59;;;;;;;50.22;23.27;;;;;;;9.61;nan;102443.03;5035175;28;20064;-47
2022/05/06 04:14:25;;;;;;;46.63;24.58;;;;;;;9.70;nan;102454.41;5034894;28;20065;-56
2022/05/06 04:16:50;;;;;;;40.58;21.75;;;;;;;9.69;nan;102450.03;5033863;28;20171;-48
2022/05/06 04:19:15;;;;;;;48.28;22.70;;;;;;;9.70;nan;102449.13;5034585;28;20037;-48
2022/05/06 04:24:24;;;;;;;51.83;23.45;;;;;;;9.73;nan;102463.16;5034293;28;20448;-54
2022/05/06 04:26:49;;;;;;;49.00;22.95;;;;;;;9.48;nan;102415.06;5035026;28;20038;-54
2022/05/06 04:29:15;;;;;;;43.15;21.92;;;;;;;9.74;nan;102458.78;5034899;28;20067;-49
2022/05/06 04:31:41;;;;;;;48.53;21.58;;;;;;;9.79;nan;102472.78;5035052;28;20059;-53
2022/05/06 04:34:07;;;;;;;55.20;22.77;;;;;;;9.46;nan;102418.53;5034688;28;20029;-58
2022/05/06 04:36:33;;;;;;;42.53;21.90;;;;;;;9.75;nan;102474.53;5034660;28;20042;-49
2022/05/06 04:38:58;;;;;;;41.72;20.30;;;;;;;9.77;nan;102478.06;5034519;28;20116;-54
2022/05/06 04:41:24;;;;;;;50.22;18.02;;;;;;;9.71;nan;102480.72;5034614;28;20041;-50
2022/05/06 04:43:49;;;;;;;39.35;17.67;;;;;;;9.63;nan;102477.22;5016744;28;20091;-47
2022/05/06 04:46:15;;;;;;;40.30;18.52;;;;;;;9.63;nan;102485.13;5032937;28;20061;-54
2022/05/06 04:48:40;;;;;;;53.03;19.08;;;;;;;9.65;nan;102490.34;5034261;28;20103;-55
2022/05/06 04:51:06;;;;;;;39.72;22.00;;;;;;;9.46;nan;102453.59;5034508;28;20443;-55
2022/05/06 04:53:31;;;;;;;42.17;20.75;;;;;;;9.69;nan;102494.75;5034253;28;20034;-51
2022/05/06 04:55:56;;;;;;;43.80;21.15;;;;;;;9.71;nan;102478.06;5016752;28;20112;-50
2022/05/06 04:58:22;;;;;;;72.50;20.40;;;;;;;9.68;nan;102475.47;5034150;28;20072;-53
2022/05/06 05:00:47;;;;;;;36.72;20.38;;;;;;;9.70;nan;102481.56;5034399;28;20038;-55
2022/05/06 05:03:14;;;;;;;42.97;22.77;;;;;;;9.77;nan;102478.06;5033180;28;20465;-47
2022/05/06 05:05:39;;;;;;;46.47;21.23;;;;;;;9.82;nan;102484.16;5032364;28;20128;-49
2022/05/06 05:08:08;;;;;;;40.60;20.75;;;;;;;9.83;nan;102488.56;5015151;28;20506;-48
2022/05/06 05:10:35;;;;;;;37.55;19.75;;;;;;;9.57;nan;102437.81;5015667;28;20033;-48
2022/05/06 05:13:01;;;;;;;35.80;19.05;;;;;;;9.90;nan;102489.41;5032246;28;20476;-47
2022/05/06 05:15:27;;;;;;;37.90;18.73;;;;;;;9.92;nan;102490.28;5032231;28;20150;-48
2022/05/06 05:17:52;;;;;;;36.28;17.65;;;;;;;9.91;nan;102489.41;5031733;28;20033;-53
2022/05/06 05:20:17;;;;;;;55.05;19.70;;;;;;;9.57;nan;102436.03;5031745;28;20114;-50
2022/05/06 05:22:43;;;;;;;33.15;17.70;;;;;;;9.86;nan;102483.28;5031545;28;20048;-49
2022/05/06 05:25:09;;;;;;;30.10;15.93;;;;;;;9.92;nan;102493.81;5032144;28;20039;-56
2022/05/06 05:27:36;;;;;;;29.10;17.15;;;;;;;9.91;nan;102492.03;5032230;28;20034;-50
2022/05/06 05:30:04;;;;;;;33.10;17.45;;;;;;;9.76;nan;102460.53;5015772;28;20041;-48
2022/05/06 05:32:29;;;;;;;33.40;17.15;;;;;;;10.04;nan;102490.25;5016003;28;20435;-48
2022/05/06 05:34:54;;;;;;;27.60;16.17;;;;;;;10.12;nan;102498.97;5015843;28;20033;-54
2022/05/06 05:37:22;;;;;;;30.10;18.05;;;;;;;10.20;nan;102504.22;5033195;28;20077;-50
2022/05/06 05:39:47;;;;;;;26.45;15.73;;;;;;;10.22;nan;102494.56;5032808;28;20076;-46
2022/05/06 05:42:19;;;;;;;26.20;15.95;;;;;;;10.23;nan;102484.03;5031779;28;20081;-47
2022/05/06 05:50:12;;;;;;;25.30;14.88;;;;;;;10.11;nan;102458.63;5032599;28;20095;-47
2022/05/06 05:52:38;;;;;;;24.30;14.82;;;;;;;10.11;nan;102456.00;5031565;28;20041;-52
2022/05/06 05:55:03;;;;;;;28.30;14.32;;;;;;;10.44;nan;102505.00;4997882;28;20025;-54
2022/05/06 05:57:29;;;;;;;23.92;14.55;;;;;;;10.49;nan;102503.19;5032664;28;20044;-48
2022/05/06 05:59:54;;;;;;;23.40;15.63;;;;;;;10.62;nan;102507.50;5032273;28;20038;-49
2022/05/06 06:02:19;;;;;;;18.80;12.85;;;;;;;10.62;nan;102502.22;5032151;28;20064;-53
2022/05/06 06:04:45;;;;;;;15.95;11.30;;;;;;;10.65;nan;102510.13;5031427;28;20570;-50
2022/05/06 06:07:11;;;;;;;12.95;11.02;;;;;;;10.62;nan;102498.75;5014863;28;20038;-48
2022/05/06 06:09:36;;;;;;;15.00;10.73;;;;;;;10.71;nan;102507.44;5031650;28;20076;-51
2022/05/06 06:12:02;;;;;;;15.30;10.75;;;;;;;10.75;nan;102513.56;5031348;28;20084;-48
2022/05/06 06:14:28;;;;;;;13.27;11.13;;;;;;;10.57;nan;102461.00;5032371;28;20108;-49
2022/05/06 06:16:53;;;;;;;15.18;11.02;;;;;;;10.89;nan;102514.34;5031804;28;20045;-49
2022/05/06 06:19:19;;;;;;;14.90;12.02;;;;;;;10.93;nan;102524.00;5032052;28;20108;-47
2022/05/06 06:21:44;;;;;;;14.05;11.68;;;;;;;10.68;nan;102462.69;5032351;28;20030;-48
2022/05/06 06:24:10;;;;;;;15.70;12.90;;;;;;;10.78;nan;102465.25;5031963;28;20045;-51
2022/05/06 06:26:35;;;;;;;17.30;13.35;;;;;;;11.14;nan;102518.56;5032791;28;20029;-51
2022/05/06 06:29:02;;;;;;;16.95;12.85;;;;;;;10.85;nan;102465.22;5014636;28;20407;-49
2022/05/06 06:31:30;;;;;;;19.00;14.95;;;;;;;11.22;nan;102518.50;5032244;28;20366;-47
2022/05/06 06:33:56;;;;;;;20.75;16.55;;;;;;;11.30;nan;102535.97;5032458;28;20041;-51
2022/05/06 06:36:22;;;;;;;20.58;16.08;;;;;;;11.25;nan;102518.47;5032253;28;20045;-46
2022/05/06 06:38:47;;;;;;;22.65;16.98;;;;;;;11.39;nan;102537.66;5032278;28;20037;-48
2022/05/06 06:41:13;;;;;;;24.40;18.50;;;;;;;11.56;nan;102537.50;5032200;28;20029;-54
2022/05/06 06:43:38;;;;;;;26.92;19.08;;;;;;;11.71;nan;102540.03;5031948;28;20413;-47
2022/05/06 06:46:06;;;;;;;24.70;18.83;;;;;;;11.89;nan;102531.94;5032094;28;20058;-50
2022/05/06 06:48:32;;;;;;;26.75;18.15;;;;;;;12.02;nan;102537.94;5014433;28;20040;-50
2022/05/06 06:50:58;;;;;;;27.38;18.65;;;;;;;12.11;nan;102537.84;5032011;28;20041;-50
2022/05/06 06:53:23;;;;;;;28.52;19.38;;;;;;;12.25;nan;102535.91;5032041;28;20540;-52
2022/05/06 06:55:49;;;;;;;26.63;19.08;;;;;;;12.25;nan;102488.38;5032123;28;20056;-54
2022/05/06 06:58:14;;;;;;;26.50;19.35;;;;;;;12.66;nan;102522.16;5032038;28;20037;-53
2022/05/06 07:00:42;;;;;;;24.85;17.52;;;;;;;12.63;nan;102499.31;5031861;28;20586;-50
2022/05/06 07:03:08;;;;;;;24.67;18.73;;;;;;;12.79;nan;102492.00;5031960;28;20406;-51
2022/05/06 07:05:33;;;;;;;25.00;18.98;;;;;;;13.21;nan;102546.88;5031662;28;20037;-53
2022/05/06 07:13:29;;;;;;;25.02;18.30;;;;;;;13.52;nan;102561.34;5031666;28;20098;-48
2022/05/06 07:15:54;;;;;;;22.02;16.35;;;;;;;13.93;nan;102557.94;5032022;28;20033;-52
2022/05/06 07:18:19;;;;;;;20.17;16.00;;;;;;;14.11;nan;102511.69;5017826;28;20399;-48
2022/05/06 07:20:45;;;;;;;15.88;14.20;;;;;;;14.56;nan;102521.31;5035972;28;20045;-53
2022/05/06 07:23:10;;;;;;;18.90;14.90;;;;;;;15.38;nan;102576.88;5035506;28;20084;-50
2022/05/06 07:25:37;;;;;;;18.58;14.18;;;;;;;15.87;nan;102582.69;5035719;28;20087;-48
2022/05/06 07:28:03;;;;;;;15.55;13.20;;;;;;;16.07;nan;102526.38;5035735;28;20041;-50
2022/05/06 07:30:29;;;;;;;18.70;14.68;;;;;;;16.84;nan;102579.91;5035365;28;20033;-53
2022/05/06 07:32:54;;;;;;;19.50;15.15;;;;;;;17.43;nan;102576.19;5018096;28;20033;-51
2022/05/06 07:35:20;;;;;;;17.67;14.80;;;;;;;18.23;nan;102583.16;5035746;28;20075;-52
2022/05/06 07:37:45;;;;;;;17.67;14.45;;;;;;;;;;5035712;28;20496;-52
2022/05/06 07:40:11;;;;;;;16.40;14.03;;;;;;;;;;5035556;28;20036;-54
2022/05/06 07:42:43;;;;;;;18.73;14.38;;;;;;;19.40;nan;102595.50;5035677;28;20029;-56
2022/05/06 07:45:12;;;;;;;14.50;12.57;;;;;;;19.34;nan;102597.53;5035238;28;20121;-50
2022/05/06 07:47:38;;;;;;;15.45;12.85;;;;;;;19.46;nan;102583.69;5035923;28;20049;-53
2022/05/06 07:50:04;;;;;;;14.50;12.15;;;;;;;19.84;nan;102593.63;5035563;28;20123;-52
2022/05/06 07:52:30;;;;;;;13.05;11.65;;;;;;;20.15;nan;102587.78;5017504;28;20059;-51
2022/05/06 07:54:56;;;;;;;11.50;10.10;;;;;;;20.13;nan;102601.25;5035575;28;20038;-45
2022/05/06 07:57:21;;;;;;;11.90;10.07;;;;;;;20.30;nan;102563.06;5001196;28;20055;-53
2022/05/06 07:59:48;;;;;;;12.25;10.25;;;;;;;20.46;nan;102564.09;5035285;28;20404;-58
2022/05/06 08:04:56;;;;;;;10.07;9.07;;;;;;;;;;5035487;28;20489;-49
2022/05/06 08:07:21;;;;;;;15.30;11.07;;;;;;;;;;5035050;28;20061;-53
2022/05/06 08:09:47;;;;;;;12.27;10.77;;;;;;;;;;5035381;28;20112;-53
2022/05/06 08:12:13;;;;;;;12.40;11.00;;;;;;;;;;5035025;28;20037;-54
2022/05/06 08:14:39;;;;;;;14.70;11.65;;;;;;;;;;5034938;28;20029;-54
2022/05/06 08:17:04;;;;;;;14.57;11.38;;;;;;;;;;5034919;28;20049;-53
2022/05/06 08:19:30;;;;;;;13.73;12.33;;;;;;;21.69;nan;102558.91;5034811;28;20152;-51
2022/05/06 08:21:55;;;;;;;14.25;12.70;;;;;;;21.89;nan;102583.88;5034601;28;20292;-48
2022/05/06 08:24:21;;;;;;;14.32;12.82;;;;;;;21.88;nan;102549.94;5034684;28;20073;-53
2022/05/06 08:26:47;;;;;;;13.90;12.40;;;;;;;22.29;nan;102564.72;5034735;28;20489;-56
2022/05/06 08:29:13;;;;;;;14.27;12.27;;;;;;;22.35;nan;102591.22;5034442;28;20040;-48
2022/05/06 08:31:38;;;;;;;13.32;12.00;;;;;;;22.55;nan;102590.97;5017165;28;20038;-56
2022/05/06 08:34:07;;;;;;;14.90;12.60;;;;;;;22.24;nan;102558.72;5016788;28;20040;-51
2022/05/06 08:36:32;;;;;;;13.00;11.80;;;;;;;;;;5017195;28;20029;-60
2022/05/06 08:38:58;;;;;;;13.85;12.35;;;;;;;;;;5034699;28;20476;-53
2022/05/06 08:41:23;;;;;;;14.27;12.87;;;;;;;;;;5016239;28;20050;-56
2022/05/06 08:43:48;;;;;;;13.52;12.13;;;;;;;;;;5033831;28;20068;-50
2022/05/06 08:50:50;;;;;;;13.18;11.93;;;;;;;;;;5034438;28;20719;-50
2022/05/06 08:51:56;;;;;;;13.85;12.45;;;;;;;;;;5038359;28;20044;-49
2022/05/06 08:54:22;;;;;;;13.10;11.80;;;;;;;;;;5034136;28;20463;-51
2022/05/06 08:56:47;;;;;;;13.25;11.95;;;;;;;;;;5033512;28;20109;-55
2022/05/06 08:59:13;;;;;;;13.13;11.48;;;;;;;;;;5034001;28;20396;-49
2022/05/06 09:01:38;;;;;;;13.57;11.52;;;;;;;24.50;nan;102579.41;5034279;28;20033;-57
2022/05/06 09:04:04;;;;;;;13.77;12.40;;;;;;;24.71;nan;102592.44;5034145;28;20040;-53
2022/05/06 09:06:31;;;;;;;13.18;11.88;;;;;;;24.55;nan;102544.09;5034007;28;20064;-53
2022/05/06 09:08:58;;;;;;;14.07;11.90;;;;;;;24.69;nan;102587.19;5034330;28;20029;-49
2022/05/06 09:14:16;;;;;;;11.15;10.05;;;;;;;25.10;nan;102592.59;5034288;28;20056;-56
2022/05/06 09:16:42;;;;;;;13.85;10.60;;;;;;;25.08;nan;102535.22;5033893;28;20036;-54
2022/05/06 09:19:19;;;;;;;11.00;9.90;;;;;;;25.29;nan;102554.50;5034231;28;20117;-49
2022/05/06 09:22:13;;;;;;;11.02;9.93;;;;;;;25.34;nan;102593.66;5033993;28;20407;-57
2022/05/06 09:24:39;;;;;;;11.35;9.70;;;;;;;25.28;nan;102590.53;5016519;28;20083;-57
2022/05/06 09:27:13;;;;;;;11.88;9.63;;;;;;;25.37;nan;102593.44;5033799;28;20038;-52
2022/05/06 09:29:47;;;;;;;10.85;9.75;;;;;;;25.46;nan;102573.09;5034021;28;20467;-53
2022/05/06 09:32:13;;;;;;;10.50;8.88;;;;;;;;;;5033792;28;20052;-49
2022/05/06 09:34:39;;;;;;;10.10;9.20;;;;;;;;;;5033504;28;20041;-57
2022/05/06 09:37:05;;;;;;;9.90;8.98;;;;;;;;;;5032278;28;20404;-51
2022/05/06 09:39:31;;;;;;;10.68;9.57;;;;;;;;;;5032396;28;20029;-51
2022/05/06 09:42:04;;;;;;;10.82;7.97;;;;;;;;;;5033707;28;20515;-50
2022/05/06 09:44:29;;;;;;;8.73;7.93;;;;;;;;;;5033184;28;20033;-49
2022/05/06 09:47:12;;;;;;;8.82;7.97;;;;;;;;;;5033223;28;20099;-53
2022/05/06 09:49:41;;;;;;;8.30;7.50;;;;;;;;;;5033324;28;20051;-53
2022/05/06 09:52:13;;;;;;;7.90;7.20;;;;;;;26.76;nan;102572.00;5015352;28;20048;-50
2022/05/06 09:54:43;;;;;;;8.80;7.72;;;;;;;26.09;nan;102485.03;5015240;28;20037;-59
2022/05/06 09:57:13;;;;;;;8.05;7.22;;;;;;;26.98;nan;102558.66;5015772;28;20033;-49
2022/05/06 09:59:39;;;;;;;7.60;6.70;;;;;;;27.07;nan;102565.19;5015781;28;20041;-46
2022/05/06 10:02:04;;;;;;;8.90;7.32;;;;;;;27.23;nan;102569.34;5033237;28;20112;-50
2022/05/06 10:04:30;;;;;;;8.35;7.22;;;;;;;27.12;nan;102534.13;5015312;28;20468;-49
2022/05/06 10:06:58;;;;;;;6.95;6.20;;;;;;;27.61;nan;102568.31;5032957;28;20073;-60
2022/05/06 10:09:25;;;;;;;7.90;7.20;;;;;;;27.54;nan;102578.72;5015537;28;20096;-49
2022/05/06 10:11:52;;;;;;;6.30;5.72;;;;;;;27.20;nan;102529.00;5014915;28;20029;-50
2022/05/06 10:14:18;;;;;;;7.72;7.03;;;;;;;26.31;nan;102524.88;5015291;28;20029;-53
2022/05/06 10:16:44;;;;;;;8.32;7.55;;;;;;;26.01;nan;102568.34;5032849;28;20036;-49
2022/05/06 10:19:44;;;;;;;8.45;7.20;;;;;;;26.47;nan;102565.13;5014927;28;20039;-49
2022/05/06 10:22:10;;;;;;;8.35;7.25;;;;;;;26.27;nan;102516.13;5032578;28;20040;-53
2022/05/06 10:24:40;;;;;;;7.20;6.47;;;;;;;27.15;nan;102558.25;5014992;28;20041;-51
2022/05/06 10:33:15;;;;;;;7.20;6.53;;;;;;;28.57;nan;102543.47;5011324;28;20124;-53
2022/05/06 10:35:42;;;;;;;7.32;6.53;;;;;;;28.96;nan;102550.19;5014704;28;20109;-49
2022/05/06 10:38:18;;;;;;;7.40;6.47;;;;;;;29.17;nan;102551.09;5032366;28;20088;-50
2022/05/06 10:40:49;;;;;;;7.28;6.57;;;;;;;28.73;nan;102548.50;5032673;28;20029;-54
2022/05/06 10:43:53;;;;;;;7.68;6.78;;;;;;;27.76;nan;102556.28;5032474;28;20034;-52
2022/05/06 10:46:32;;;;;;;10.07;7.57;;;;;;;27.98;nan;102545.53;4990429;28;20074;-56
2022/05/06 10:49:36;;;;;;;7.63;6.93;;;;;;;28.72;nan;102544.94;4990780;28;20432;-49
2022/05/06 10:52:33;;;;;;;7.00;6.30;;;;;;;28.93;nan;102539.59;5024247;28;20389;-49
2022/05/06 10:55:00;;;;;;;8.90;6.85;;;;;;;29.94;nan;102543.63;5023967;28;20064;-49
2022/05/06 10:57:28;;;;;;;6.93;6.22;;;;;;;29.42;nan;102504.66;5032533;28;20033;-51
2022/05/06 11:00:02;;;;;;;9.73;7.63;;;;;;;28.87;nan;102543.69;5032151;28;20033;-48
2022/05/06 11:02:32;;;;;;;8.60;6.97;;;;;;;28.89;nan;102536.28;5032002;28;20040;-52
2022/05/06 11:05:04;;;;;;;;;;;;;;;28.20;nan;102540.16;5014732;28;20040;-56
2022/05/06 11:07:31;;;;;;;7.25;6.30;;;;;;;27.24;nan;102543.16;5032255;28;19921;-52
2022/05/06 11:09:57;;;;;;;8.52;7.57;;;;;;;26.20;nan;102541.84;5014448;28;20033;-55
2022/05/06 11:12:28;;;;;;;8.50;6.55;;;;;;;25.59;nan;102544.38;5032123;28;20030;-49
2022/05/06 11:14:55;;;;;;;8.45;7.47;;;;;;;25.15;nan;102536.56;5014549;28;20065;-53
2022/05/06 11:17:20;;;;;;;8.60;7.80;;;;;;;25.30;nan;102537.38;5014325;28;20033;-52
2022/05/06 11:19:46;;;;;;;8.35;7.55;;;;;;;25.51;nan;102538.66;5032019;28;20044;-55
2022/05/06 11:22:11;;;;;;;7.72;6.90;;;;;;;25.23;nan;102527.94;5031612;28;20409;-53
2022/05/06 11:24:36;;;;;;;8.50;6.82;;;;;;;24.29;nan;102516.16;5031657;28;20345;-54
2022/05/06 11:27:19;;;;;;;9.98;7.85;;;;;;;22.97;nan;102461.56;5013840;28;20030;-55
2022/05/06 11:30:00;;;;;;;9.38;7.70;;;;;;;22.91;nan;102518.28;5031932;28;20588;-53
2022/05/06 11:32:29;;;;;;;11.55;8.15;;;;;;;22.68;nan;102500.78;5031728;28;20436;-47
2022/05/06 11:35:01;;;;;;;8.13;7.10;;;;;;;22.50;nan;102461.56;5014469;28;20034;-52
2022/05/06 11:37:28;;;;;;;9.45;6.88;;;;;;;22.73;nan;102501.41;5031805;28;20045;-56
2022/05/06 11:40:39;;;;;;;7.13;6.40;;;;;;;22.58;nan;102518.34;5031796;28;20038;-49
2022/05/06 11:42:40;;;;;;;7.03;6.32;;;;;;;23.23;nan;102509.22;5009657;28;20092;-48
2022/05/06 11:47:50;;;;;;;7.35;6.55;;;;;;;25.13;nan;102508.88;5031898;28;20096;-48
2022/05/06 11:50:15;;;;;;;8.82;7.32;;;;;;;24.69;nan;102468.69;5014031;28;20061;-58
2022/05/06 11:52:43;;;;;;;8.15;7.38;;;;;;;24.49;nan;102513.03;5032273;28;20075;-51
2022/05/06 11:55:09;;;;;;;7.82;6.85;;;;;;;24.50;nan;102513.91;5014249;28;20460;-50
2022/05/06 11:57:35;;;;;;;7.38;6.18;;;;;;;24.35;nan;102507.69;5031882;28;20044;-50
2022/05/06 12:00:03;;;;;;;9.60;7.07;;;;;;;23.79;nan;102492.38;5014114;28;20036;-47
2022/05/06 12:02:28;;;;;;;6.80;6.10;;;;;;;24.62;nan;102500.53;5014466;28;20033;-51
2022/05/06 12:04:53;;;;;;;8.07;6.72;;;;;;;25.58;nan;102504.88;5017541;28;20426;-47
2022/05/06 12:07:19;;;;;;;7.28;6.40;;;;;;;25.26;nan;102463.06;5035083;28;20041;-47
2022/05/06 12:09:45;;;;;;;8.63;7.78;;;;;;;24.89;nan;102505.09;5035083;28;20425;-56
2022/05/06 12:12:10;;;;;;;7.45;6.75;;;;;;;24.47;nan;102490.75;5035161;28;20037;-52
2022/05/06 12:14:39;;;;;;;9.60;7.60;;;;;;;25.30;nan;102502.31;5017498;28;20068;-54
2022/05/06 12:17:14;;;;;;;8.48;6.78;;;;;;;25.90;nan;102446.84;5000912;28;20053;-49
2022/05/06 12:19:41;;;;;;;9.43;7.28;;;;;;;26.32;nan;102509.53;5035103;28;20044;-48
2022/05/06 12:22:07;;;;;;;8.50;6.57;;;;;;;26.51;nan;102504.50;5034981;28;20036;-49
2022/05/06 12:24:47;;;;;;;7.05;6.38;;;;;;;26.44;nan;102503.25;5016683;28;20457;-50